sensor_id;sensor_type;location;lat;lon;timestamp;pressure;altitude;pressure_sealevel;temperature;humidity
75420;BME280;63998;52.488;13.428;2023-11-21T00:00:51;100339.78;;;9.08;88.66
75420;BME280;63998;52.488;13.428;2023-11-21T00:03:16;100344.09;;;9.06;88.54
75420;BME280;63998;52.488;13.428;2023-11-21T00:05:42;100341.50;;;9.06;88.28
75420;BME280;63998;52.488;13.428;2023-11-21T00:08:08;100345.81;;;8.99;87.67
75420;BME280;63998;52.488;13.428;2023-11-21T00:10:34;100346.69;;;8.99;87.72
75420;BME280;63998;52.488;13.428;2023-11-21T00:12:59;100352.72;;;9.05;87.53
75420;BME280;63998;52.488;13.428;2023-11-21T00:15:25;100353.59;;;9.08;87.48
75420;BME280;63998;52.488;13.428;2023-11-21T00:17:51;100366.56;;;8.99;87.50
75420;BME280;63998;52.488;13.428;2023-11-21T00:20:17;100366.53;;;8.94;86.84
75420;BME280;63998;52.488;13.428;2023-11-21T00:22:42;100370.88;;;8.97;86.58
75420;BME280;63998;52.488;13.428;2023-11-21T00:25:08;100370.88;;;8.98;86.69
75420;BME280;63998;52.488;13.428;2023-11-21T00:27:37;100367.38;;;8.87;86.19
75420;BME280;63998;52.488;13.428;2023-11-21T00:30:03;100364.81;;;8.95;85.68
75420;BME280;63998;52.488;13.428;2023-11-21T00:32:30;100369.09;;;8.76;85.31
75420;BME280;63998;52.488;13.428;2023-11-21T00:34:56;100374.28;;;8.82;85.33
75420;BME280;63998;52.488;13.428;2023-11-21T00:37:21;100374.25;;;8.73;85.88
75420;BME280;63998;52.488;13.428;2023-11-21T00:39:47;100383.72;;;8.71;85.09
75420;BME280;63998;52.488;13.428;2023-11-21T00:42:12;100385.44;;;8.68;85.45
75420;BME280;63998;52.488;13.428;2023-11-21T00:44:38;100393.22;;;8.64;84.78
75420;BME280;63998;52.488;13.428;2023-11-21T00:47:04;100391.41;;;8.56;84.25
75420;BME280;63998;52.488;13.428;2023-11-21T00:49:30;100395.72;;;8.48;83.95
75420;BME280;63998;52.488;13.428;2023-11-21T00:51:55;100393.91;;;8.33;83.48
75420;BME280;63998;52.488;13.428;2023-11-21T00:54:21;100399.13;;;8.38;84.09
75420;BME280;63998;52.488;13.428;2023-11-21T00:56:46;100398.25;;;8.36;84.21
75420;BME280;63998;52.488;13.428;2023-11-21T00:59:13;100400.00;;;8.40;84.77
75420;BME280;63998;52.488;13.428;2023-11-21T01:01:38;100402.47;;;8.24;83.93
75420;BME280;63998;52.488;13.428;2023-11-21T01:04:04;100408.50;;;8.29;83.63
75420;BME280;63998;52.488;13.428;2023-11-21T01:06:32;100410.16;;;8.18;83.22
75420;BME280;63998;52.488;13.428;2023-11-21T01:08:57;100406.75;;;8.22;83.58
75420;BME280;63998;52.488;13.428;2023-11-21T01:11:23;100412.78;;;8.21;83.79
75420;BME280;63998;52.488;13.428;2023-11-21T01:13:48;100412.81;;;8.29;84.10
75420;BME280;63998;52.488;13.428;2023-11-21T01:16:13;100418.00;;;8.29;84.53
75420;BME280;63998;52.488;13.428;2023-11-21T01:18:39;100420.59;;;8.27;84.39
75420;BME280;63998;52.488;13.428;2023-11-21T01:21:04;100429.25;;;8.33;84.29
75420;BME280;63998;52.488;13.428;2023-11-21T01:23:30;100428.41;;;8.32;84.05
75420;BME280;63998;52.488;13.428;2023-11-21T01:25:56;100434.44;;;8.33;83.46
75420;BME280;63998;52.488;13.428;2023-11-21T01:28:22;100435.25;;;8.25;83.27
75420;BME280;63998;52.488;13.428;2023-11-21T01:30:48;100438.63;;;8.20;83.34
75420;BME280;63998;52.488;13.428;2023-11-21T01:33:14;100441.22;;;8.15;83.25
75420;BME280;63998;52.488;13.428;2023-11-21T01:35:41;100449.81;;;8.14;83.67
75420;BME280;63998;52.488;13.428;2023-11-21T01:38:06;100448.06;;;8.10;83.33
75420;BME280;63998;52.488;13.428;2023-11-21T01:40:33;100452.41;;;8.14;83.31
75420;BME280;63998;52.488;13.428;2023-11-21T01:42:59;100437.75;;;8.13;83.08
75420;BME280;63998;52.488;13.428;2023-11-21T01:45:24;100449.75;;;8.08;82.39
75420;BME280;63998;52.488;13.428;2023-11-21T01:47:50;100453.19;;;8.01;82.17
75420;BME280;63998;52.488;13.428;2023-11-21T01:50:16;100445.31;;;7.92;82.03
75420;BME280;63998;52.488;13.428;2023-11-21T01:52:46;100451.34;;;7.88;81.61
75420;BME280;63998;52.488;13.428;2023-11-21T01:55:14;100453.88;;;7.83;81.42
75420;BME280;63998;52.488;13.428;2023-11-21T01:57:43;100454.78;;;7.87;81.61
75420;BME280;63998;52.488;13.428;2023-11-21T02:00:09;100451.34;;;7.88;81.76
75420;BME280;63998;52.488;13.428;2023-11-21T02:02:47;100456.44;;;7.82;81.22
75420;BME280;63998;52.488;13.428;2023-11-21T02:05:14;100468.47;;;7.74;80.44
75420;BME280;63998;52.488;13.428;2023-11-21T02:07:41;100475.25;;;7.63;80.47
75420;BME280;63998;52.488;13.428;2023-11-21T02:10:08;100476.94;;;7.61;80.82
75420;BME280;63998;52.488;13.428;2023-11-21T02:12:34;100476.94;;;7.59;81.13
75420;BME280;63998;52.488;13.428;2023-11-21T02:15:02;100473.44;;;7.55;80.80
75420;BME280;63998;52.488;13.428;2023-11-21T02:17:30;100470.00;;;7.53;80.74
75420;BME280;63998;52.488;13.428;2023-11-21T02:19:57;100481.97;;;7.47;80.65
75420;BME280;63998;52.488;13.428;2023-11-21T02:22:24;100487.03;;;7.36;80.37
75420;BME280;63998;52.488;13.428;2023-11-21T02:24:51;100487.06;;;7.39;80.41
75420;BME280;63998;52.488;13.428;2023-11-21T02:27:17;100478.41;;;7.34;80.59
75420;BME280;63998;52.488;13.428;2023-11-21T02:29:47;100481.06;;;7.40;81.04
75420;BME280;63998;52.488;13.428;2023-11-21T02:32:12;100487.94;;;7.38;81.59
75420;BME280;63998;52.488;13.428;2023-11-21T02:34:38;100482.66;;;7.28;81.40
75420;BME280;63998;52.488;13.428;2023-11-21T02:37:04;100485.13;;;7.20;81.13
75420;BME280;63998;52.488;13.428;2023-11-21T02:39:31;100486.84;;;7.21;81.00
75420;BME280;63998;52.488;13.428;2023-11-21T02:41:56;100494.75;;;7.33;81.60
75420;BME280;63998;52.488;13.428;2023-11-21T02:44:22;100488.72;;;7.34;81.95
75420;BME280;63998;52.488;13.428;2023-11-21T02:46:47;100502.59;;;7.44;82.77
75420;BME280;63998;52.488;13.428;2023-11-21T02:49:13;100500.91;;;7.46;83.00
75420;BME280;63998;52.488;13.428;2023-11-21T02:51:38;100494.88;;;7.45;82.35
75420;BME280;63998;52.488;13.428;2023-11-21T02:54:05;100499.19;;;7.46;81.48
75420;BME280;63998;52.488;13.428;2023-11-21T02:56:32;100490.59;;;7.47;81.90
75420;BME280;63998;52.488;13.428;2023-11-21T02:58:59;100497.53;;;7.51;82.15
75420;BME280;63998;52.488;13.428;2023-11-21T03:01:25;100494.88;;;7.45;81.18
75420;BME280;63998;52.488;13.428;2023-11-21T03:03:51;100495.72;;;7.44;81.40
75420;BME280;63998;52.488;13.428;2023-11-21T03:06:19;100507.00;;;7.49;81.55
75420;BME280;63998;52.488;13.428;2023-11-21T03:08:45;100501.00;;;7.55;82.07
75420;BME280;63998;52.488;13.428;2023-11-21T03:11:11;100512.19;;;7.51;81.48
75420;BME280;63998;52.488;13.428;2023-11-21T03:13:41;100513.03;;;7.51;80.79
75420;BME280;63998;52.488;13.428;2023-11-21T03:16:09;100509.63;;;7.52;81.15
75420;BME280;63998;52.488;13.428;2023-11-21T03:18:36;100516.47;;;7.50;81.03
75420;BME280;63998;52.488;13.428;2023-11-21T03:21:02;100513.06;;;7.54;81.10
75420;BME280;63998;52.488;13.428;2023-11-21T03:23:28;100518.31;;;7.61;81.74
75420;BME280;63998;52.488;13.428;2023-11-21T03:25:53;100524.28;;;7.53;80.75
75420;BME280;63998;52.488;13.428;2023-11-21T03:28:18;100525.13;;;7.52;80.85
75420;BME280;63998;52.488;13.428;2023-11-21T03:30:44;100521.59;;;7.47;80.32
75420;BME280;63998;52.488;13.428;2023-11-21T03:33:09;100538.75;;;7.42;80.36
75420;BME280;63998;52.488;13.428;2023-11-21T03:35:34;100537.88;;;7.42;80.61
75420;BME280;63998;52.488;13.428;2023-11-21T03:38:00;100545.66;;;7.43;80.09
75420;BME280;63998;52.488;13.428;2023-11-21T03:40:25;100544.81;;;7.41;80.12
75420;BME280;63998;52.488;13.428;2023-11-21T03:42:51;100546.47;;;7.38;80.28
75420;BME280;63998;52.488;13.428;2023-11-21T03:45:16;100548.16;;;7.36;79.73
75420;BME280;63998;52.488;13.428;2023-11-21T03:47:42;100542.09;;;7.29;79.43
75420;BME280;63998;52.488;13.428;2023-11-21T03:50:08;100553.25;;;7.28;79.34
75420;BME280;63998;52.488;13.428;2023-11-21T03:52:34;100561.00;;;7.28;80.17
75420;BME280;63998;52.488;13.428;2023-11-21T03:55:01;100566.19;;;7.31;79.64
75420;BME280;63998;52.488;13.428;2023-11-21T03:57:26;100558.41;;;7.30;79.49
75420;BME280;63998;52.488;13.428;2023-11-21T03:59:53;100566.28;;;7.37;80.63
75420;BME280;63998;52.488;13.428;2023-11-21T04:02:19;100573.22;;;7.41;79.66
75420;BME280;63998;52.488;13.428;2023-11-21T04:04:44;100574.94;;;7.39;79.87
75420;BME280;63998;52.488;13.428;2023-11-21T04:07:10;100571.59;;;7.49;79.52
75420;BME280;63998;52.488;13.428;2023-11-21T04:09:36;100573.13;;;7.35;78.89
75420;BME280;63998;52.488;13.428;2023-11-21T04:12:01;100567.78;;;7.20;77.60
75420;BME280;63998;52.488;13.428;2023-11-21T04:14:27;100574.69;;;7.21;76.52
75420;BME280;63998;52.488;13.428;2023-11-21T04:16:52;100576.25;;;7.10;76.12
75420;BME280;63998;52.488;13.428;2023-11-21T04:19:19;100582.19;;;7.01;76.20
75420;BME280;63998;52.488;13.428;2023-11-21T04:21:44;100582.09;;;6.97;75.89
75420;BME280;63998;52.488;13.428;2023-11-21T04:24:10;100586.31;;;6.89;75.50
75420;BME280;63998;52.488;13.428;2023-11-21T04:26:35;100596.50;;;6.79;75.87
75420;BME280;63998;52.488;13.428;2023-11-21T04:29:01;100591.28;;;6.76;75.23
75420;BME280;63998;52.488;13.428;2023-11-21T04:31:26;100603.09;;;6.62;74.78
75420;BME280;63998;52.488;13.428;2023-11-21T04:33:52;100598.72;;;6.58;75.16
75420;BME280;63998;52.488;13.428;2023-11-21T04:36:17;100611.69;;;6.61;75.57
75420;BME280;63998;52.488;13.428;2023-11-21T04:38:43;100603.97;;;6.63;76.17
75420;BME280;63998;52.488;13.428;2023-11-21T04:41:09;100611.81;;;6.67;75.87
75420;BME280;63998;52.488;13.428;2023-11-21T04:43:34;100616.09;;;6.67;76.07
75420;BME280;63998;52.488;13.428;2023-11-21T04:46:00;100611.75;;;6.64;75.42
75420;BME280;63998;52.488;13.428;2023-11-21T04:48:27;100610.06;;;6.66;76.13
75420;BME280;63998;52.488;13.428;2023-11-21T04:50:52;100617.03;;;6.73;77.23
75420;BME280;63998;52.488;13.428;2023-11-21T04:53:18;100616.16;;;6.71;76.20
75420;BME280;63998;52.488;13.428;2023-11-21T04:55:43;100617.09;;;6.76;77.01
75420;BME280;63998;52.488;13.428;2023-11-21T04:58:09;100618.72;;;6.71;76.34
75420;BME280;63998;52.488;13.428;2023-11-21T05:00:35;100622.97;;;6.68;75.74
75420;BME280;63998;52.488;13.428;2023-11-21T05:03:02;100617.00;;;6.70;76.12
75420;BME280;63998;52.488;13.428;2023-11-21T05:05:27;100624.84;;;6.76;76.90
75420;BME280;63998;52.488;13.428;2023-11-21T05:07:53;100632.41;;;6.64;75.71
75420;BME280;63998;52.488;13.428;2023-11-21T05:10:19;100638.41;;;6.63;75.23
75420;BME280;63998;52.488;13.428;2023-11-21T05:12:45;100641.06;;;6.69;76.20
75420;BME280;63998;52.488;13.428;2023-11-21T05:15:14;100640.97;;;6.63;75.73
75420;BME280;63998;52.488;13.428;2023-11-21T05:17:40;100658.97;;;6.60;75.18
75420;BME280;63998;52.488;13.428;2023-11-21T05:20:13;100656.25;;;6.51;74.83
75420;BME280;63998;52.488;13.428;2023-11-21T05:22:43;100656.31;;;6.54;75.46
75420;BME280;63998;52.488;13.428;2023-11-21T05:25:08;100654.56;;;6.53;75.74
75420;BME280;63998;52.488;13.428;2023-11-21T05:27:35;100666.63;;;6.54;75.64
75420;BME280;63998;52.488;13.428;2023-11-21T05:30:04;100665.75;;;6.52;75.58
75420;BME280;63998;52.488;13.428;2023-11-21T05:32:31;100664.84;;;6.50;75.54
75420;BME280;63998;52.488;13.428;2023-11-21T05:34:56;100671.69;;;6.48;75.86
75420;BME280;63998;52.488;13.428;2023-11-21T05:37:22;100670.94;;;6.54;76.74
75420;BME280;63998;52.488;13.428;2023-11-21T05:39:48;100678.78;;;6.61;77.42
75420;BME280;63998;52.488;13.428;2023-11-21T05:42:14;100673.78;;;6.70;76.66
75420;BME280;63998;52.488;13.428;2023-11-21T05:44:41;100672.03;;;6.69;76.59
75420;BME280;63998;52.488;13.428;2023-11-21T05:47:07;100682.31;;;6.66;76.08
75420;BME280;63998;52.488;13.428;2023-11-21T05:49:32;100691.06;;;6.74;76.96
75420;BME280;63998;52.488;13.428;2023-11-21T05:51:58;100689.47;;;6.82;78.13
75420;BME280;63998;52.488;13.428;2023-11-21T05:54:24;100690.31;;;6.83;77.68
75420;BME280;63998;52.488;13.428;2023-11-21T05:56:51;100699.63;;;6.73;76.03
75420;BME280;63998;52.488;13.428;2023-11-21T05:59:16;100693.63;;;6.74;76.74
75420;BME280;63998;52.488;13.428;2023-11-21T06:01:42;100696.00;;;6.62;75.22
75420;BME280;63998;52.488;13.428;2023-11-21T06:04:07;100697.81;;;6.66;76.17
75420;BME280;63998;52.488;13.428;2023-11-21T06:06:36;100703.84;;;6.67;75.86
75420;BME280;63998;52.488;13.428;2023-11-21T06:09:01;100720.22;;;6.70;76.12
75420;BME280;63998;52.488;13.428;2023-11-21T06:11:27;100718.28;;;6.57;76.09
75420;BME280;63998;52.488;13.428;2023-11-21T06:13:53;100718.19;;;6.51;75.36
75420;BME280;63998;52.488;13.428;2023-11-21T06:16:21;100728.28;;;6.39;74.35
75420;BME280;63998;52.488;13.428;2023-11-21T06:18:46;100724.69;;;6.32;74.87
75420;BME280;63998;52.488;13.428;2023-11-21T06:21:12;100731.47;;;6.26;75.12
75420;BME280;63998;52.488;13.428;2023-11-21T06:23:37;100731.47;;;6.26;74.96
75420;BME280;63998;52.488;13.428;2023-11-21T06:26:03;100735.81;;;6.28;75.40
75420;BME280;63998;52.488;13.428;2023-11-21T06:28:30;100739.97;;;6.22;74.47
75420;BME280;63998;52.488;13.428;2023-11-21T06:30:56;100745.94;;;6.19;74.94
75420;BME280;63998;52.488;13.428;2023-11-21T06:33:23;100758.88;;;6.21;74.58
75420;BME280;63998;52.488;13.428;2023-11-21T06:35:48;100753.66;;;6.18;75.19
75420;BME280;63998;52.488;13.428;2023-11-21T06:38:15;100753.66;;;6.18;74.08
75420;BME280;63998;52.488;13.428;2023-11-21T06:40:40;100756.19;;;6.15;74.63
75420;BME280;63998;52.488;13.428;2023-11-21T06:43:06;100767.34;;;6.13;74.40
75420;BME280;63998;52.488;13.428;2023-11-21T06:45:33;100772.72;;;6.26;75.41
75420;BME280;63998;52.488;13.428;2023-11-21T06:47:59;100773.63;;;6.28;74.73
75420;BME280;63998;52.488;13.428;2023-11-21T06:50:24;100782.88;;;6.17;74.06
75420;BME280;63998;52.488;13.428;2023-11-21T06:52:50;100773.50;;;6.22;74.36
75420;BME280;63998;52.488;13.428;2023-11-21T06:55:15;100779.63;;;6.27;75.53
75420;BME280;63998;52.488;13.428;2023-11-21T06:57:41;100779.56;;;6.24;74.98
75420;BME280;63998;52.488;13.428;2023-11-21T07:00:07;100779.69;;;6.30;74.99
75420;BME280;63998;52.488;13.428;2023-11-21T07:02:34;100781.31;;;6.25;74.72
75420;BME280;63998;52.488;13.428;2023-11-21T07:05:00;100782.25;;;6.28;75.18
75420;BME280;63998;52.488;13.428;2023-11-21T07:07:25;100783.72;;;6.16;74.21
75420;BME280;63998;52.488;13.428;2023-11-21T07:09:50;100786.47;;;6.25;74.94
75420;BME280;63998;52.488;13.428;2023-11-21T07:12:17;100790.78;;;6.26;75.65
75420;BME280;63998;52.488;13.428;2023-11-21T07:14:43;100785.78;;;6.33;76.53
75420;BME280;63998;52.488;13.428;2023-11-21T07:17:10;100797.03;;;6.37;75.93
75420;BME280;63998;52.488;13.428;2023-11-21T07:19:37;100795.41;;;6.42;75.37
75420;BME280;63998;52.488;13.428;2023-11-21T07:22:03;100809.31;;;6.50;75.99
75420;BME280;63998;52.488;13.428;2023-11-21T07:24:28;100800.81;;;6.54;76.63
75420;BME280;63998;52.488;13.428;2023-11-21T07:26:54;100810.31;;;6.55;75.76
75420;BME280;63998;52.488;13.428;2023-11-21T07:29:25;100805.22;;;6.60;75.14
75420;BME280;63998;52.488;13.428;2023-11-21T07:31:52;100799.34;;;6.68;76.48
75420;BME280;63998;52.488;13.428;2023-11-21T07:34:18;100814.81;;;6.68;75.26
75420;BME280;63998;52.488;13.428;2023-11-21T07:36:43;100807.72;;;6.55;73.66
75420;BME280;63998;52.488;13.428;2023-11-21T07:39:08;100815.47;;;6.55;73.31
75420;BME280;63998;52.488;13.428;2023-11-21T07:41:34;100812.81;;;6.52;73.60
75420;BME280;63998;52.488;13.428;2023-11-21T07:44:00;100815.34;;;6.51;74.95
75420;BME280;63998;52.488;13.428;2023-11-21T07:46:26;100816.16;;;6.48;74.37
75420;BME280;63998;52.488;13.428;2023-11-21T07:48:52;100825.84;;;6.60;74.89
75420;BME280;63998;52.488;13.428;2023-11-21T07:51:18;100822.25;;;6.52;74.81
75420;BME280;63998;52.488;13.428;2023-11-21T07:53:44;100824.97;;;6.59;75.03
75420;BME280;63998;52.488;13.428;2023-11-21T07:56:09;100831.41;;;6.81;76.93
75420;BME280;63998;52.488;13.428;2023-11-21T07:58:35;100827.03;;;6.75;74.77
75420;BME280;63998;52.488;13.428;2023-11-21T08:01:02;100826.22;;;6.78;74.32
75420;BME280;63998;52.488;13.428;2023-11-21T08:03:27;100837.13;;;6.63;72.58
75420;BME280;63998;52.488;13.428;2023-11-21T08:05:55;100833.75;;;6.67;74.16
75420;BME280;63998;52.488;13.428;2023-11-21T08:08:21;100850.25;;;6.75;74.32
75420;BME280;63998;52.488;13.428;2023-11-21T08:10:47;100849.41;;;6.76;73.94
75420;BME280;63998;52.488;13.428;2023-11-21T08:13:13;100856.19;;;6.71;73.41
75420;BME280;63998;52.488;13.428;2023-11-21T08:15:41;100865.94;;;6.86;74.59
75420;BME280;63998;52.488;13.428;2023-11-21T08:18:10;100863.38;;;6.88;74.24
75420;BME280;63998;52.488;13.428;2023-11-21T08:20:35;100861.72;;;6.90;72.82
75420;BME280;63998;52.488;13.428;2023-11-21T08:23:03;100866.81;;;6.87;73.65
75420;BME280;63998;52.488;13.428;2023-11-21T08:25:31;100865.44;;;7.04;76.02
75420;BME280;63998;52.488;13.428;2023-11-21T08:27:57;100865.53;;;7.10;74.26
75420;BME280;63998;52.488;13.428;2023-11-21T08:30:22;100860.34;;;7.10;73.81
75420;BME280;63998;52.488;13.428;2023-11-21T08:32:49;100861.97;;;7.05;73.76
75420;BME280;63998;52.488;13.428;2023-11-21T08:35:15;100861.00;;;6.98;71.61
75420;BME280;63998;52.488;13.428;2023-11-21T08:37:41;100874.75;;;6.97;72.65
75420;BME280;63998;52.488;13.428;2023-11-21T08:40:07;100874.84;;;7.02;73.94
75420;BME280;63998;52.488;13.428;2023-11-21T08:42:37;100870.28;;;6.89;71.38
75420;BME280;63998;52.488;13.428;2023-11-21T08:45:03;100882.22;;;6.83;71.66
75420;BME280;63998;52.488;13.428;2023-11-21T08:47:29;100883.81;;;6.75;71.53
75420;BME280;63998;52.488;13.428;2023-11-21T08:49:55;100884.75;;;6.79;73.39
75420;BME280;63998;52.488;13.428;2023-11-21T08:52:21;100882.31;;;6.87;73.09
75420;BME280;63998;52.488;13.428;2023-11-21T08:54:48;100892.94;;;7.02;75.13
75420;BME280;63998;52.488;13.428;2023-11-21T08:57:21;100894.66;;;7.03;73.61
75420;BME280;63998;52.488;13.428;2023-11-21T08:59:47;100892.84;;;6.99;73.27
75420;BME280;63998;52.488;13.428;2023-11-21T09:02:12;100900.56;;;6.97;72.15
75420;BME280;63998;52.488;13.428;2023-11-21T09:04:38;100897.94;;;6.94;72.89
75420;BME280;63998;52.488;13.428;2023-11-21T09:07:03;100906.53;;;6.95;72.68
75420;BME280;63998;52.488;13.428;2023-11-21T09:09:28;100913.63;;;7.05;74.18
75420;BME280;63998;52.488;13.428;2023-11-21T09:11:55;100912.75;;;7.03;73.64
75420;BME280;63998;52.488;13.428;2023-11-21T09:14:20;100917.84;;;7.00;72.97
75420;BME280;63998;52.488;13.428;2023-11-21T09:16:46;100925.41;;;6.91;71.08
75420;BME280;63998;52.488;13.428;2023-11-21T09:19:12;100933.94;;;6.87;72.08
75420;BME280;63998;52.488;13.428;2023-11-21T09:21:39;100935.44;;;6.75;72.24
75420;BME280;63998;52.488;13.428;2023-11-21T09:24:05;100933.75;;;6.77;73.71
75420;BME280;63998;52.488;13.428;2023-11-21T09:26:30;100937.25;;;6.81;72.79
75420;BME280;63998;52.488;13.428;2023-11-21T09:28:56;100938.13;;;6.81;71.80
75420;BME280;63998;52.488;13.428;2023-11-21T09:31:22;100947.69;;;6.85;73.04
75420;BME280;63998;52.488;13.428;2023-11-21T09:33:49;100949.50;;;6.90;73.11
75420;BME280;63998;52.488;13.428;2023-11-21T09:36:14;100945.69;;;6.72;71.87
75420;BME280;63998;52.488;13.428;2023-11-21T09:38:40;100956.28;;;6.84;74.39
75420;BME280;63998;52.488;13.428;2023-11-21T09:41:21;100955.28;;;6.78;73.71
75420;BME280;63998;52.488;13.428;2023-11-21T09:43:47;100956.19;;;6.81;74.06
75420;BME280;63998;52.488;13.428;2023-11-21T09:46:13;100963.78;;;6.74;71.76
75420;BME280;63998;52.488;13.428;2023-11-21T09:48:47;100969.66;;;6.65;70.93
75420;BME280;63998;52.488;13.428;2023-11-21T09:51:17;100973.19;;;6.70;71.78
75420;BME280;63998;52.488;13.428;2023-11-21T09:53:47;100974.47;;;6.50;70.70
75420;BME280;63998;52.488;13.428;2023-11-21T09:56:15;100979.69;;;6.53;71.68
75420;BME280;63998;52.488;13.428;2023-11-21T09:58:44;100979.69;;;6.53;71.42
75420;BME280;63998;52.488;13.428;2023-11-21T10:01:11;100975.38;;;6.52;71.04
75420;BME280;63998;52.488;13.428;2023-11-21T10:03:37;100981.22;;;6.45;70.68
75420;BME280;63998;52.488;13.428;2023-11-21T10:06:04;100978.91;;;6.57;72.06
75420;BME280;63998;52.488;13.428;2023-11-21T10:08:32;100984.81;;;6.52;72.12
75420;BME280;63998;52.488;13.428;2023-11-21T10:10:58;100975.53;;;6.60;72.28
75420;BME280;63998;52.488;13.428;2023-11-21T10:13:26;100980.50;;;6.51;71.25
75420;BME280;63998;52.488;13.428;2023-11-21T10:15:55;100980.53;;;6.52;71.90
75420;BME280;63998;52.488;13.428;2023-11-21T10:18:23;100985.88;;;6.61;71.14
75420;BME280;63998;52.488;13.428;2023-11-21T10:20:52;100984.34;;;6.69;73.65
75420;BME280;63998;52.488;13.428;2023-11-21T10:23:22;100986.22;;;6.76;74.25
75420;BME280;63998;52.488;13.428;2023-11-21T10:25:48;100979.41;;;6.80;72.75
75420;BME280;63998;52.488;13.428;2023-11-21T10:28:14;100986.19;;;6.75;71.61
75420;BME280;63998;52.488;13.428;2023-11-21T10:30:40;100988.41;;;6.58;69.56
75420;BME280;63998;52.488;13.428;2023-11-21T10:33:07;100993.50;;;6.55;70.73
75420;BME280;63998;52.488;13.428;2023-11-21T10:35:47;100995.38;;;6.62;72.32
75420;BME280;63998;52.488;13.428;2023-11-21T10:38:16;100997.03;;;6.60;72.31
75420;BME280;63998;52.488;13.428;2023-11-21T10:40:41;100995.09;;;6.50;72.12
75420;BME280;63998;52.488;13.428;2023-11-21T10:43:08;101000.19;;;6.47;72.49
75420;BME280;63998;52.488;13.428;2023-11-21T10:45:38;101008.88;;;6.51;73.61
75420;BME280;63998;52.488;13.428;2023-11-21T10:48:16;101012.28;;;6.49;73.25
75420;BME280;63998;52.488;13.428;2023-11-21T10:50:45;101018.44;;;6.55;72.71
75420;BME280;63998;52.488;13.428;2023-11-21T10:53:11;101021.03;;;6.56;73.76
75420;BME280;63998;52.488;13.428;2023-11-21T10:55:39;101024.16;;;6.43;72.06
75420;BME280;63998;52.488;13.428;2023-11-21T10:58:05;101020.63;;;6.38;72.06
75420;BME280;63998;52.488;13.428;2023-11-21T11:00:32;101013.75;;;6.38;72.88
75420;BME280;63998;52.488;13.428;2023-11-21T11:02:58;101019.69;;;6.34;72.57
75420;BME280;63998;52.488;13.428;2023-11-21T11:05:27;101027.38;;;6.33;73.30
75420;BME280;63998;52.488;13.428;2023-11-21T11:08:08;101024.13;;;6.40;73.65
75420;BME280;63998;52.488;13.428;2023-11-21T11:10:34;101025.72;;;6.35;74.29
75420;BME280;63998;52.488;13.428;2023-11-21T11:13:00;101026.63;;;6.37;73.47
75420;BME280;63998;52.488;13.428;2023-11-21T11:15:27;101025.72;;;6.35;72.86
75420;BME280;63998;52.488;13.428;2023-11-21T11:17:53;101025.88;;;6.41;72.74
75420;BME280;63998;52.488;13.428;2023-11-21T11:20:24;101025.78;;;6.38;72.25
75420;BME280;63998;52.488;13.428;2023-11-21T11:25:36;101027.16;;;6.24;71.23
75420;BME280;63998;52.488;13.428;2023-11-21T11:28:08;101031.44;;;6.23;71.34
75420;BME280;63998;52.488;13.428;2023-11-21T11:35:59;101052.81;;;6.18;73.41
75420;BME280;63998;52.488;13.428;2023-11-21T11:38:32;101045.91;;;6.17;72.56
75420;BME280;63998;52.488;13.428;2023-11-21T11:41:05;101059.88;;;6.25;73.05
75420;BME280;63998;52.488;13.428;2023-11-21T11:43:31;101058.28;;;6.30;73.95
75420;BME280;63998;52.488;13.428;2023-11-21T11:46:09;101066.78;;;6.26;72.21
75420;BME280;63998;52.488;13.428;2023-11-21T11:48:38;101071.75;;;6.20;72.77
75420;BME280;63998;52.488;13.428;2023-11-21T11:53:41;101072.41;;;6.11;72.21
75420;BME280;63998;52.488;13.428;2023-11-21T11:56:42;101076.78;;;6.13;72.81
75420;BME280;63998;52.488;13.428;2023-11-21T11:59:09;101082.03;;;6.17;72.72
75420;BME280;63998;52.488;13.428;2023-11-21T12:01:35;101083.81;;;6.21;74.22
75420;BME280;63998;52.488;13.428;2023-11-21T12:06:51;101096.34;;;6.05;72.45
75420;BME280;63998;52.488;13.428;2023-11-21T12:09:22;101103.16;;;6.03;72.77
75420;BME280;63998;52.488;13.428;2023-11-21T12:11:49;101092.25;;;6.13;74.26
75420;BME280;63998;52.488;13.428;2023-11-21T12:14:15;101101.88;;;6.21;74.82
75420;BME280;63998;52.488;13.428;2023-11-21T12:16:42;101120.84;;;6.23;75.04
75420;BME280;63998;52.488;13.428;2023-11-21T12:19:11;101121.69;;;6.22;74.50
75420;BME280;63998;52.488;13.428;2023-11-21T12:21:37;101116.75;;;6.31;75.77
75420;BME280;63998;52.488;13.428;2023-11-21T12:24:04;101116.69;;;6.28;74.26
75420;BME280;63998;52.488;13.428;2023-11-21T12:26:33;101127.72;;;6.22;72.47
75420;BME280;63998;52.488;13.428;2023-11-21T12:28:59;101130.19;;;6.18;72.89
75420;BME280;63998;52.488;13.428;2023-11-21T12:31:26;101141.22;;;6.12;73.41
75420;BME280;63998;52.488;13.428;2023-11-21T12:33:53;101135.97;;;6.09;73.50
75420;BME280;63998;52.488;13.428;2023-11-21T12:36:19;101138.16;;;5.95;73.26
75420;BME280;63998;52.488;13.428;2023-11-21T12:38:44;101148.22;;;5.86;73.94
75420;BME280;63998;52.488;13.428;2023-11-21T12:41:10;101148.13;;;5.83;75.15
75420;BME280;63998;52.488;13.428;2023-11-21T12:43:36;101154.19;;;5.85;75.38
75420;BME280;63998;52.488;13.428;2023-11-21T12:46:08;101149.88;;;5.84;76.37
75420;BME280;63998;52.488;13.428;2023-11-21T12:48:39;101156.63;;;5.79;76.17
75420;BME280;63998;52.488;13.428;2023-11-21T12:51:09;101151.28;;;5.73;75.45
75420;BME280;63998;52.488;13.428;2023-11-21T12:53:37;101142.41;;;5.92;76.97
75420;BME280;63998;52.488;13.428;2023-11-21T12:56:07;101145.34;;;6.05;76.74
75420;BME280;63998;52.488;13.428;2023-11-21T12:58:35;101150.75;;;6.15;77.33
75420;BME280;63998;52.488;13.428;2023-11-21T13:01:01;101154.16;;;6.13;76.86